Terminal Aerodrome Forecast
Issued by NWS Memphis, TN

Home | Current Version | Previous Version | Text Only | Print | Product List | Glossary On
Versions: 1 2 3 4 5 6 7 8 9 10 11 12 13
216
FTUS44 KMEG 071519 AAA
TAFJBR
TAF AMD
KJBR 071519Z 0715/0812 23009KT P6SM FEW250
     FM071630 23015G22KT P6SM BKN250
     FM080000 25008KT P6SM SCT250
     FM080600 29010KT P6SM SKC=

USA.gov is the U.S. government's official web portal to all federal, state and local government web resources and services.